Time;durP1;ratioP1;P1;durP2;ratioP2;P2;SDS_P1;SDS_P2;PMS_P1;PMS_P2;Temp;Humidity;BMP_temperature;BMP_pressure;BME280_temperature;BME280_humidity;BME280_pressure;Samples;Min_cycle;Max_cycle;Signal;HPM_P1;HPM_P2
2022/10/24 00:01:35;;;;;;;52.57;27.20;;;;;;;;;;5029234;28;20249;-69
2022/10/24 00:04:02;;;;;;;49.90;26.77;;;;;;;;;;5028730;28;20637;-69
2022/10/24 00:06:34;;;;;;;49.67;27.03;;;;;;;;;;5029172;28;20209;-69
2022/10/24 00:09:00;;;;;;;51.30;27.63;;;;;;;;;;5029296;28;20195;-69
2022/10/24 00:11:27;;;;;;;47.40;26.77;;;;;;;;;;5029073;28;20549;-69
2022/10/24 00:13:54;;;;;;;50.53;27.70;;;;;;;;;;5029196;28;20195;-69
2022/10/24 00:16:21;;;;;;;43.10;23.83;;;;;;;;;;5011985;28;20557;-69
2022/10/24 00:18:48;;;;;;;68.17;27.50;;;;;;;;;;5027746;28;20203;-69
2022/10/24 00:21:14;;;;;;;65.50;29.23;;;;;;;;;;5028776;28;20187;-69
2022/10/24 00:23:41;;;;;;;41.27;25.37;;;;;;;;;;5028539;28;20184;-69
2022/10/24 00:26:09;;;;;;;50.17;27.13;;;;;;;;;;5028922;28;20205;-69
2022/10/24 00:28:36;;;;;;;44.03;26.00;;;;;;;;;;5029123;28;20192;-69
2022/10/24 00:31:03;;;;;;;35.43;22.80;;;;;;;;;;5011915;28;20275;-69
2022/10/24 00:33:30;;;;;;;40.57;25.13;;;;;;;;;;5028895;28;20265;-69
2022/10/24 00:35:56;;;;;;;39.60;24.80;;;;;;;;;;5027157;28;20207;-69
2022/10/24 00:38:23;;;;;;;42.43;25.10;;;;;;;;;;5028441;28;20199;-69
2022/10/24 00:40:50;;;;;;;62.43;26.77;;;;;;;;;;5028092;28;20227;-69
2022/10/24 00:43:20;;;;;;;50.57;25.47;;;;;;;;;;5032967;28;20725;-69
2022/10/24 00:45:50;;;;;;;37.43;22.63;;;;;;;;;;5014995;28;20195;-69
2022/10/24 00:48:24;;;;;;;66.43;29.33;;;;;;;;;;5032354;28;20246;-69
2022/10/24 00:50:55;;;;;;;59.60;28.30;;;;;;;;;;5015315;28;20274;-69
2022/10/24 00:53:22;;;;;;;41.53;24.70;;;;;;;;;;5015236;28;20187;-69
2022/10/24 00:55:49;;;;;;;46.23;28.00;;;;;;;;;;5014716;28;20190;-69
2022/10/24 00:58:16;;;;;;;51.67;27.43;;;;;;;;;;5015574;28;20286;-69
2022/10/24 01:00:43;;;;;;;57.97;28.00;;;;;;;;;;5015141;28;20187;-69
2022/10/24 01:03:10;;;;;;;71.00;30.40;;;;;;;;;;5032250;28;20194;-69
2022/10/24 01:05:39;;;;;;;55.17;26.53;;;;;;;;;;5032473;28;20202;-69
2022/10/24 01:08:25;;;;;;;51.63;28.40;;;;;;;;;;5018897;28;20223;-69
2022/10/24 01:11:07;;;;;;;73.57;29.47;;;;;;;;;;5032322;28;21020;-69
2022/10/24 01:13:39;;;;;;;63.37;30.47;;;;;;;;;;5032352;28;20207;-69
2022/10/24 01:16:29;;;;;;;75.03;30.10;;;;;;;;;;5014897;28;20199;-68
2022/10/24 01:19:02;;;;;;;45.57;28.13;;;;;;;;;;4986216;28;20207;-69
2022/10/24 01:21:49;;;;;;;45.73;26.47;;;;;;;;;;5014411;28;20210;-69
2022/10/24 01:24:27;;;;;;;59.23;25.97;;;;;;;;;;5031382;28;20244;-69
2022/10/24 01:27:03;;;;;;;56.57;25.13;;;;;;;;;;5014448;28;20183;-69
2022/10/24 01:29:30;;;;;;;41.20;24.43;;;;;;;;;;5031861;28;20211;-71
2022/10/24 01:32:02;;;;;;;42.23;24.53;;;;;;;;;;5014162;28;20241;-71
2022/10/24 01:34:35;;;;;;;43.93;24.37;;;;;;;;;;5014656;28;20219;-70
2022/10/24 01:37:03;;;;;;;32.10;22.23;;;;;;;;;;5014443;28;20207;-69
2022/10/24 01:39:31;;;;;;;43.30;23.27;;;;;;;;;;5013830;28;20195;-71
2022/10/24 01:41:58;;;;;;;56.50;25.17;;;;;;;;;;5013903;28;20215;-71
2022/10/24 01:44:27;;;;;;;37.20;22.20;;;;;;;;;;5014492;28;20210;-70
2022/10/24 01:46:54;;;;;;;40.47;22.20;;;;;;;;;;5013957;28;20187;-69
2022/10/24 01:49:22;;;;;;;56.57;24.60;;;;;;;;;;5031919;28;20191;-69
2022/10/24 01:51:50;;;;;;;44.47;23.27;;;;;;;;;;5013714;28;20241;-69
2022/10/24 01:54:16;;;;;;;35.27;22.07;;;;;;;;;;4996584;28;20203;-68
2022/10/24 01:56:43;;;;;;;35.30;21.80;;;;;;;;;;5031308;28;20257;-69
2022/10/24 01:59:27;;;;;;;43.77;23.53;;;;;;;;;;5013893;28;20222;-69
2022/10/24 02:01:54;;;;;;;39.40;23.37;;;;;;;;;;5031274;28;20273;-69
2022/10/24 02:04:21;;;;;;;39.73;22.83;;;;;;;;;;5014187;28;20186;-69
2022/10/24 02:06:47;;;;;;;40.77;22.70;;;;;;;;;;5013455;28;20210;-69
2022/10/24 02:09:15;;;;;;;46.30;23.20;;;;;;;;;;5013887;28;20665;-70
2022/10/24 02:11:42;;;;;;;52.90;25.43;;;;;;;;;;5031203;28;20187;-71
2022/10/24 02:14:09;;;;;;;49.17;24.70;;;;;;;;;;5031297;28;20233;-68
2022/10/24 02:16:36;;;;;;;55.23;25.50;;;;;;;;;;5013394;28;20203;-70
2022/10/24 02:19:20;;;;;;;56.83;24.57;;;;;;;;;;5016243;28;20175;-70
2022/10/24 02:21:50;;;;;;;83.83;25.87;;;;;;;;;;5013143;28;20222;-70
2022/10/24 02:24:23;;;;;;;81.47;23.57;;;;;;;;;;5030630;28;20203;-70
2022/10/24 02:26:52;;;;;;;70.03;30.20;;;;;;;;;;5012622;28;20429;-71
2022/10/24 02:29:44;;;;;;;64.23;26.17;;;;;;;;;;5012935;28;20179;-69
2022/10/24 02:32:12;;;;;;;62.80;25.47;;;;;;;;;;5013272;28;20672;-70
2022/10/24 02:34:56;;;;;;;68.10;26.53;;;;;;;;;;5015791;28;20172;-70
2022/10/24 02:37:23;;;;;;;54.50;25.07;;;;;;;;;;5029963;28;20646;-71
2022/10/24 02:39:50;;;;;;;58.07;26.90;;;;;;;;;;5013239;28;20188;-70
2022/10/24 02:42:16;;;;;;;72.90;22.97;;;;;;;;;;5012858;28;20196;-70
2022/10/24 02:44:45;;;;;;;59.33;22.47;;;;;;;;;;5013250;28;20715;-69
2022/10/24 02:47:12;;;;;;;65.83;24.80;;;;;;;;;;4998769;28;20587;-68
2022/10/24 02:49:39;;;;;;;86.60;25.83;;;;;;;;;;5022239;28;20210;-72
2022/10/24 02:52:06;;;;;;;55.27;26.20;;;;;;;;;;5019360;28;20235;-72
2022/10/24 02:54:33;;;;;;;76.03;26.33;;;;;;;;;;5025443;28;20183;-72
2022/10/24 02:57:01;;;;;;;70.93;27.13;;;;;;;;;;5030486;28;20959;-71
2022/10/24 02:59:28;;;;;;;69.87;26.33;;;;;;;;;;5025109;28;20282;-71
2022/10/24 03:01:54;;;;;;;78.93;27.50;;;;;;;;;;5025527;28;20689;-70
2022/10/24 03:04:21;;;;;;;59.63;25.97;;;;;;;;;;5034886;28;20288;-72
2022/10/24 03:06:48;;;;;;;62.67;27.70;;;;;;;;;;5028674;28;20926;-70
2022/10/24 03:09:15;;;;;;;69.47;25.90;;;;;;;;;;5022700;28;20191;-71
2022/10/24 03:11:41;;;;;;;119.43;29.03;;;;;;;;;;5034128;28;20218;-71
2022/10/24 03:14:08;;;;;;;104.03;27.73;;;;;;;;;;5025589;28;20639;-72
2022/10/24 03:16:35;;;;;;;83.53;27.73;;;;;;;;;;5023967;28;20199;-71
2022/10/24 03:19:02;;;;;;;78.23;27.10;;;;;;;;;;5030381;28;20213;-70
2022/10/24 03:21:28;;;;;;;49.93;25.23;;;;;;;;;;5024018;28;20187;-72
2022/10/24 03:23:55;;;;;;;46.77;24.00;;;;;;;;;;5033535;28;20214;-71
2022/10/24 03:26:23;;;;;;;51.10;24.40;;;;;;;;;;5023374;28;20234;-75
2022/10/24 03:28:49;;;;;;;57.67;24.47;;;;;;;;;;5026565;28;20202;-70
2022/10/24 03:31:16;;;;;;;50.73;25.00;;;;;;;;;;5035814;28;20636;-70
2022/10/24 03:33:43;;;;;;;44.37;24.23;;;;;;;;;;5031107;28;20195;-70
2022/10/24 03:36:10;;;;;;;39.20;24.37;;;;;;;;;;5033010;28;20187;-71
2022/10/24 03:38:36;;;;;;;51.30;22.57;;;;;;;;;;5019093;28;21039;-73
2022/10/24 03:41:04;;;;;;;48.20;23.57;;;;;;;;;;5026847;28;20180;-73
2022/10/24 03:43:30;;;;;;;42.63;24.50;;;;;;;;;;5021754;28;20187;-72
2022/10/24 03:45:58;;;;;;;39.37;22.10;;;;;;;;;;5037034;28;20194;-70
2022/10/24 03:48:25;;;;;;;40.23;23.60;;;;;;;;;;5029131;28;20262;-73
2022/10/24 03:50:52;;;;;;;40.70;22.63;;;;;;;;;;5020665;28;20234;-71
2022/10/24 03:53:18;;;;;;;45.00;22.07;;;;;;;;;;5027446;28;20713;-72
2022/10/24 03:55:45;;;;;;;40.53;22.37;;;;;;;;;;5018897;28;20233;-71
2022/10/24 03:58:12;;;;;;;38.33;21.53;;;;;;;;;;5025538;28;20302;-69
2022/10/24 04:00:39;;;;;;;44.10;21.43;;;;;;;;;;5030766;28;20199;-71
2022/10/24 04:03:06;;;;;;;30.70;20.00;;;;;;;;;;5021960;28;20246;-71
2022/10/24 04:05:33;;;;;;;34.70;21.27;;;;;;;;;;5017892;28;20225;-69
2022/10/24 04:08:00;;;;;;;34.87;21.03;;;;;;;;;;5018673;28;20190;-72
2022/10/24 04:10:26;;;;;;;32.50;20.43;;;;;;;;;;5023972;28;20671;-69
2022/10/24 04:12:53;;;;;;;37.10;21.63;;;;;;;;;;5013745;28;20294;-70
2022/10/24 04:15:20;;;;;;;36.13;20.50;;;;;;;;;;5019125;28;20193;-69
2022/10/24 04:17:47;;;;;;;29.63;20.50;;;;;;;;;;5018634;28;20237;-70
2022/10/24 04:20:18;;;;;;;35.33;21.13;;;;;;;;;;5031407;28;20221;-71
2022/10/24 04:22:45;;;;;;;43.20;21.30;;;;;;;;;;5032357;28;20191;-71
2022/10/24 04:25:12;;;;;;;36.93;20.97;;;;;;;;;;5020613;28;20205;-72
2022/10/24 04:27:39;;;;;;;30.10;20.40;;;;;;;;;;5024116;28;20596;-69
2022/10/24 04:30:09;;;;;;;31.00;20.17;;;;;;;;;;5031215;28;20203;-70
2022/10/24 04:32:42;;;;;;;31.20;21.13;;;;;;;;;;5032436;28;20198;-69
2022/10/24 04:35:10;;;;;;;31.67;20.27;;;;;;;;;;5025814;28;20188;-70
2022/10/24 04:37:36;;;;;;;30.30;20.33;;;;;;;;;;5013458;28;20221;-70
2022/10/24 04:40:03;;;;;;;36.17;21.47;;;;;;;;;;5031832;28;20184;-71
2022/10/24 04:42:30;;;;;;;33.07;21.37;;;;;;;;;;5033082;28;20245;-70
2022/10/24 04:44:57;;;;;;;35.67;21.10;;;;;;;;;;5000490;28;20539;-71
2022/10/24 04:47:24;;;;;;;36.13;21.40;;;;;;;;;;5034558;28;20242;-69
2022/10/24 04:49:51;;;;;;;30.30;20.57;;;;;;;;;;5016890;28;20575;-69
2022/10/24 04:52:17;;;;;;;34.03;20.90;;;;;;;;;;5034217;28;20195;-68
2022/10/24 04:54:44;;;;;;;34.93;20.90;;;;;;;;;;5034215;28;20196;-68
2022/10/24 04:57:11;;;;;;;34.87;20.90;;;;;;;;;;5033716;28;20234;-69
2022/10/24 04:59:37;;;;;;;33.77;20.73;;;;;;;;;;5034519;28;20249;-70
2022/10/24 05:02:04;;;;;;;36.43;22.20;;;;;;;;;;5010653;28;20191;-71
2022/10/24 05:04:48;;;;;;;36.43;22.70;;;;;;;;;;5035088;28;20667;-69
2022/10/24 05:07:15;;;;;;;34.97;21.77;;;;;;;;;;5030410;28;20188;-71
2022/10/24 05:09:42;;;;;;;43.07;22.33;;;;;;;;;;5040183;28;20215;-69
2022/10/24 05:12:09;;;;;;;37.03;22.77;;;;;;;;;;5014672;28;20678;-70
2022/10/24 05:14:36;;;;;;;38.57;23.50;;;;;;;;;;5035203;28;20215;-70
2022/10/24 05:17:03;;;;;;;37.03;22.87;;;;;;;;;;5036512;28;20293;-72
2022/10/24 05:19:30;;;;;;;38.80;22.83;;;;;;;;;;5026194;28;20194;-73
2022/10/24 05:21:57;;;;;;;36.70;23.00;;;;;;;;;;5032702;28;20612;-69
2022/10/24 05:24:24;;;;;;;40.47;22.37;;;;;;;;;;5028009;28;20201;-69
2022/10/24 05:26:51;;;;;;;35.47;23.20;;;;;;;;;;5032460;28;20593;-74
2022/10/24 05:29:17;;;;;;;36.83;22.30;;;;;;;;;;5033644;28;20219;-72
2022/10/24 05:31:44;;;;;;;39.47;23.33;;;;;;;;;;5033247;28;20207;-71
2022/10/24 05:34:11;;;;;;;39.73;23.70;;;;;;;;;;5032646;28;20282;-73
2022/10/24 05:36:38;;;;;;;41.30;23.03;;;;;;;;;;5024695;28;20282;-73
2022/10/24 05:39:05;;;;;;;37.30;23.47;;;;;;;;;;5018276;28;20323;-69
2022/10/24 05:41:31;;;;;;;39.47;22.80;;;;;;;;;;5011752;28;20243;-69
2022/10/24 05:43:58;;;;;;;38.97;23.73;;;;;;;;;;5039826;28;20204;-69
2022/10/24 05:46:25;;;;;;;45.00;24.07;;;;;;;;;;5031538;28;20187;-69
2022/10/24 05:48:52;;;;;;;44.47;24.87;;;;;;;;;;5028722;28;20259;-70
2022/10/24 05:51:18;;;;;;;40.17;24.87;;;;;;;;;;5028688;28;20202;-70
2022/10/24 05:53:45;;;;;;;39.70;24.40;;;;;;;;;;5028326;28;20211;-69
2022/10/24 05:56:12;;;;;;;42.60;24.37;;;;;;;;;;5029342;28;20198;-69
2022/10/24 05:58:39;;;;;;;40.90;24.03;;;;;;;;;;5027923;28;20294;-68
2022/10/24 06:01:05;;;;;;;40.13;24.43;;;;;;;;;;5028071;28;21014;-70
2022/10/24 06:03:32;;;;;;;37.03;23.53;;;;;;;;;;5027625;28;20199;-70
2022/10/24 06:06:04;;;;;;;37.13;23.33;;;;;;;;;;5030718;28;20199;-68
2022/10/24 06:08:32;;;;;;;39.00;24.53;;;;;;;;;;5040493;28;20222;-70
2022/10/24 06:10:59;;;;;;;36.17;23.37;;;;;;;;;;5026842;28;20203;-69
2022/10/24 06:13:25;;;;;;;38.57;22.90;;;;;;;;;;5035469;28;20195;-68
2022/10/24 06:15:52;;;;;;;34.47;22.93;;;;;;;;;;5033543;28;20603;-69
2022/10/24 06:18:19;;;;;;;35.00;22.40;;;;;;;;;;5033807;28;20199;-69
2022/10/24 06:20:46;;;;;;;37.97;23.73;;;;;;;;;;5029479;28;20214;-69
2022/10/24 06:23:12;;;;;;;35.23;22.53;;;;;;;;;;5038026;28;20229;-70
2022/10/24 06:25:40;;;;;;;39.30;24.43;;;;;;;;;;5032122;28;20231;-69
2022/10/24 06:28:07;;;;;;;35.90;22.27;;;;;;;;;;5022928;28;20195;-69
2022/10/24 06:30:38;;;;;;;36.17;22.87;;;;;;;;;;5030180;28;20190;-68
2022/10/24 06:33:05;;;;;;;34.97;21.97;;;;;;;;;;5025523;28;20881;-68
2022/10/24 06:35:32;;;;;;;34.30;22.97;;;;;;;;;;5039060;28;20550;-68
2022/10/24 06:37:58;;;;;;;34.40;22.37;;;;;;;;;;5012383;28;20215;-69
2022/10/24 06:40:25;;;;;;;34.43;21.97;;;;;;;;;;5029091;28;21008;-68
2022/10/24 06:42:52;;;;;;;36.07;21.73;;;;;;;;;;5029046;28;20196;-70
2022/10/24 06:45:20;;;;;;;35.63;22.93;;;;;;;;;;5034562;28;20202;-70
2022/10/24 06:47:47;;;;;;;33.83;21.80;;;;;;;;;;5036471;28;20226;-69
2022/10/24 06:50:19;;;;;;;33.27;22.10;;;;;;;;;;5021866;28;20716;-68
2022/10/24 06:52:46;;;;;;;34.43;22.17;;;;;;;;;;5026917;28;20274;-70
2022/10/24 06:55:13;;;;;;;32.57;21.30;;;;;;;;;;5026719;28;20297;-68
2022/10/24 06:57:40;;;;;;;32.60;21.40;;;;;;;;;;5021840;28;20834;-69
2022/10/24 07:00:08;;;;;;;34.80;23.07;;;;;;;;;;5030989;28;20217;-69
2022/10/24 07:02:34;;;;;;;34.53;22.17;;;;;;;;;;5027585;28;20190;-72
2022/10/24 07:05:01;;;;;;;34.73;22.93;;;;;;;;;;5026118;28;20465;-70
2022/10/24 07:07:28;;;;;;;32.07;22.37;;;;;;;;;;5021738;28;20194;-69
2022/10/24 07:09:56;;;;;;;35.37;21.77;;;;;;;;;;5031466;28;20760;-69
2022/10/24 07:12:22;;;;;;;34.70;22.40;;;;;;;;;;5021625;28;20757;-68
2022/10/24 07:14:49;;;;;;;37.37;22.73;;;;;;;;;;5031326;28;20203;-70
2022/10/24 07:17:16;;;;;;;36.07;23.20;;;;;;;;;;5014810;28;20664;-67
2022/10/24 07:19:43;;;;;;;37.27;22.63;;;;;;;;;;5033046;28;20250;-69
2022/10/24 07:22:10;;;;;;;36.53;24.30;;;;;;;;;;5023272;28;20578;-69
2022/10/24 07:24:37;;;;;;;34.37;22.97;;;;;;;;;;5033960;28;20194;-68
2022/10/24 07:27:03;;;;;;;36.97;23.53;;;;;;;;;;5018387;28;20194;-68
2022/10/24 07:29:30;;;;;;;38.30;23.97;;;;;;;;;;5030815;28;20281;-68
2022/10/24 07:31:58;;;;;;;38.03;23.17;;;;;;;;;;5043791;28;20194;-67
2022/10/24 07:34:25;;;;;;;37.43;23.83;;;;;;;;;;5039313;28;20199;-68
2022/10/24 07:36:51;;;;;;;37.47;24.40;;;;;;;;;;5030219;28;20215;-68
2022/10/24 07:39:18;;;;;;;39.13;24.40;;;;;;;;;;5029148;28;20305;-68
2022/10/24 07:41:45;;;;;;;38.07;23.97;;;;;;;;;;5029833;28;20195;-68
2022/10/24 07:44:12;;;;;;;40.07;25.07;;;;;;;;;;5028733;28;20289;-68
2022/10/24 07:46:39;;;;;;;41.67;26.27;;;;;;;;;;5030075;28;20262;-68
2022/10/24 07:49:06;;;;;;;44.40;26.10;;;;;;;;;;5029747;28;20281;-68
2022/10/24 07:51:33;;;;;;;42.50;25.47;;;;;;;;;;5028898;28;20550;-68
2022/10/24 07:53:59;;;;;;;46.30;27.13;;;;;;;;;;5012342;28;20703;-68
2022/10/24 07:56:26;;;;;;;42.60;25.93;;;;;;;;;;5029577;28;20194;-68
2022/10/24 07:58:54;;;;;;;41.20;25.70;;;;;;;;;;5029073;28;20929;-67
2022/10/24 08:01:22;;;;;;;40.93;24.50;;;;;;;;;;5029910;28;20204;-67
2022/10/24 08:03:49;;;;;;;44.60;26.47;;;;;;;;;;5011732;28;20551;-68
2022/10/24 08:06:16;;;;;;;40.90;24.37;;;;;;;;;;5029625;28;20214;-68
2022/10/24 08:08:43;;;;;;;38.43;23.30;;;;;;;;;;5029395;28;20207;-68
2022/10/24 08:11:11;;;;;;;39.70;24.17;;;;;;;;;;5029696;28;20192;-68
2022/10/24 08:13:37;;;;;;;37.73;23.83;;;;;;;;;;5029574;28;20644;-68
2022/10/24 08:16:08;;;;;;;37.90;22.70;;;;;;;;;;5028934;28;20245;-68
2022/10/24 08:18:35;;;;;;;39.77;24.50;;;;;;;;;;5011733;28;20226;-68
2022/10/24 08:21:06;;;;;;;40.07;24.60;;;;;;;;;;5028839;28;20298;-69
2022/10/24 08:23:33;;;;;;;39.57;24.63;;;;;;;;;;5011973;28;20190;-67
2022/10/24 08:26:02;;;;;;;41.30;26.53;;;;;;;;;;5029491;28;20278;-69
2022/10/24 08:28:29;;;;;;;40.07;24.87;;;;;;;;;;5029432;28;20689;-68
2022/10/24 08:31:02;;;;;;;42.63;25.63;;;;;;;;;;5028701;28;20207;-68
2022/10/24 08:33:28;;;;;;;39.10;25.53;;;;;;;;;;5011553;28;20191;-69
2022/10/24 08:35:56;;;;;;;38.60;23.97;;;;;;;;;;5029430;28;20188;-70
2022/10/24 08:38:23;;;;;;;38.07;24.47;;;;;;;;;;5011158;28;20269;-69
2022/10/24 08:40:50;;;;;;;37.17;23.77;;;;;;;;;;5029134;28;20176;-69
2022/10/24 08:43:17;;;;;;;36.37;22.87;;;;;;;;;;5012134;28;20721;-69
2022/10/24 08:45:53;;;;;;;36.03;23.03;;;;;;;;;;5011785;28;21011;-68
2022/10/24 08:48:21;;;;;;;35.63;23.20;;;;;;;;;;5028968;28;20243;-69
2022/10/24 08:50:50;;;;;;;37.10;23.63;;;;;;;;;;5011166;28;20196;-70
2022/10/24 08:53:28;;;;;;;37.90;23.07;;;;;;;;;;5029125;28;20655;-68
2022/10/24 08:55:56;;;;;;;38.77;24.87;;;;;;;;;;5010805;28;20187;-69
2022/10/24 08:58:23;;;;;;;38.37;24.20;;;;;;;;;;5012105;28;20212;-69
2022/10/24 09:00:50;;;;;;;37.27;24.27;;;;;;;;;;5028910;28;20192;-69
2022/10/24 09:03:25;;;;;;;40.57;24.57;;;;;;;;;;5013726;28;20186;-69
2022/10/24 09:06:15;;;;;;;41.13;23.77;;;;;;;;;;5032642;28;20195;-69
2022/10/24 09:08:41;;;;;;;37.33;23.23;;;;;;;;;;5031769;28;20188;-68
2022/10/24 09:11:09;;;;;;;35.33;23.07;;;;;;;;;;5031593;28;20183;-69
2022/10/24 09:13:36;;;;;;;33.67;22.20;;;;;;;;;;5015191;28;20669;-68
2022/10/24 09:16:03;;;;;;;35.03;23.53;;;;;;;;;;5015526;28;20211;-69
2022/10/24 09:18:42;;;;;;;35.53;23.10;;;;;;;;;;5014928;28;20203;-69
2022/10/24 09:21:10;;;;;;;37.33;22.43;;;;;;;;;;5014570;28;20294;-69
2022/10/24 09:23:36;;;;;;;34.27;23.00;;;;;;;;;;4998668;28;20206;-67
2022/10/24 09:26:04;;;;;;;35.53;23.63;;;;;;;;;;5014368;28;20309;-67
2022/10/24 09:28:32;;;;;;;36.47;23.43;;;;;;;;;;5015027;28;20191;-68
2022/10/24 09:31:01;;;;;;;36.03;24.27;;;;;;;;;;5015038;28;20651;-68
2022/10/24 09:33:29;;;;;;;39.27;23.87;;;;;;;;;;5014319;28;20262;-68
2022/10/24 09:35:57;;;;;;;35.93;24.17;;;;;;;;;;5014638;28;20191;-68
2022/10/24 09:38:32;;;;;;;40.73;26.13;;;;;;;;;;5014588;28;20601;-69
2022/10/24 09:41:01;;;;;;;36.60;24.73;;;;;;;;;;5014756;28;20195;-68
2022/10/24 09:43:36;;;;;;;37.83;25.10;;;;;;;;;;5014012;28;20222;-67
2022/10/24 09:46:12;;;;;;;38.33;25.57;;;;;;;;;;5032148;28;20291;-68
2022/10/24 09:48:50;;;;;;;41.17;26.17;;;;;;;;;;5031764;28;20306;-67
2022/10/24 09:51:23;;;;;;;40.43;26.13;;;;;;;;;;5031604;28;20188;-69
2022/10/24 09:53:57;;;;;;;43.47;27.30;;;;;;;;;;5031692;28;20323;-69
2022/10/24 09:56:31;;;;;;;43.00;26.33;;;;;;;;;;5031687;28;20218;-68
2022/10/24 09:59:01;;;;;;;42.03;26.67;;;;;;;;;;5031666;28;20223;-69
2022/10/24 10:01:27;;;;;;;41.90;26.90;;;;;;;;;;5013675;28;20659;-68
2022/10/24 10:04:04;;;;;;;39.20;26.80;;;;;;;;;;5031576;28;20180;-69
2022/10/24 10:06:36;;;;;;;38.50;24.50;;;;;;;;;;5013667;28;20679;-67
2022/10/24 10:09:02;;;;;;;38.87;25.67;;;;;;;;;;5030585;28;20195;-69
2022/10/24 10:11:30;;;;;;;39.43;25.27;;;;;;;;;;5031209;28;20238;-68
2022/10/24 10:14:03;;;;;;;41.53;27.23;;;;;;;;;;5029630;28;20199;-68
2022/10/24 10:16:30;;;;;;;41.97;26.07;;;;;;;;;;5028180;28;20191;-69
2022/10/24 10:19:06;;;;;;;38.33;25.90;;;;;;;;;;5013830;28;20540;-69
2022/10/24 10:21:51;;;;;;;38.50;24.23;;;;;;;;;;5013639;28;20321;-68
2022/10/24 10:24:24;;;;;;;35.97;24.43;;;;;;;;;;5013791;28;20195;-68
2022/10/24 10:26:51;;;;;;;37.57;26.17;;;;;;;;;;5031120;28;20267;-68
2022/10/24 10:29:18;;;;;;;38.53;25.50;;;;;;;;;;5013707;28;20187;-69
2022/10/24 10:31:47;;;;;;;37.80;24.90;;;;;;;;;;5030974;28;20191;-69
2022/10/24 10:34:29;;;;;;;32.93;23.17;;;;;;;;;;5030806;28;20282;-68
2022/10/24 10:37:14;;;;;;;34.33;23.53;;;;;;;;;;5030888;28;20536;-69
2022/10/24 10:39:59;;;;;;;30.20;21.60;;;;;;;;;;5030756;28;20215;-69
2022/10/24 10:42:34;;;;;;;28.47;20.47;;;;;;;;;;5031055;28;20890;-69
2022/10/24 10:45:19;;;;;;;30.83;21.57;;;;;;;;;;5013562;28;20214;-68
2022/10/24 10:47:52;;;;;;;31.33;22.30;;;;;;;;;;5030553;28;20219;-69
2022/10/24 10:50:45;;;;;;;29.07;20.60;;;;;;;;;;5010946;28;20305;-69
2022/10/24 10:53:15;;;;;;;30.27;21.47;;;;;;;;;;5007442;28;20212;-68
2022/10/24 10:55:57;;;;;;;27.63;20.13;;;;;;;;;;5010881;28;20238;-68
2022/10/24 10:58:43;;;;;;;28.70;20.47;;;;;;;;;;5011391;28;20781;-68
2022/10/24 11:01:19;;;;;;;25.43;18.87;;;;;;;;;;5011068;28;20188;-68
2022/10/24 11:03:52;;;;;;;31.63;19.57;;;;;;;;;;5016755;28;20214;-68
2022/10/24 11:06:44;;;;;;;26.03;18.67;;;;;;;;;;5030579;28;20191;-68
2022/10/24 11:09:17;;;;;;;27.10;17.70;;;;;;;;;;5026309;28;20610;-68
2022/10/24 11:11:48;;;;;;;24.97;18.30;;;;;;;;;;5029364;28;20191;-68
2022/10/24 11:14:19;;;;;;;22.63;17.17;;;;;;;;;;5013366;28;20194;-68
2022/10/24 11:16:46;;;;;;;21.70;15.57;;;;;;;;;;5012677;28;20618;-68
2022/10/24 11:19:29;;;;;;;23.07;16.50;;;;;;;;;;5012973;28;20215;-68
2022/10/24 11:21:56;;;;;;;21.67;16.43;;;;;;;;;;5011956;28;20797;-68
2022/10/24 11:24:23;;;;;;;19.47;15.83;;;;;;;;;;5030240;28;20195;-68
2022/10/24 11:26:58;;;;;;;19.03;14.87;;;;;;;;;;5029693;28;20229;-68
2022/10/24 11:29:49;;;;;;;18.63;14.23;;;;;;;;;;5015114;28;20172;-68
2022/10/24 11:32:42;;;;;;;17.57;13.90;;;;;;;;;;5012578;28;20198;-68
2022/10/24 11:35:15;;;;;;;21.17;14.23;;;;;;;;;;5000037;28;20563;-68
2022/10/24 11:37:43;;;;;;;18.40;14.63;;;;;;;;;;5012429;28;20278;-68
2022/10/24 11:40:28;;;;;;;18.60;14.17;;;;;;;;;;5014216;28;20285;-68
2022/10/24 11:43:09;;;;;;;22.30;15.17;;;;;;;;;;5013646;28;20211;-68
2022/10/24 11:45:40;;;;;;;18.60;14.23;;;;;;;;;;5012660;28;20207;-68
2022/10/24 11:48:21;;;;;;;18.73;12.70;;;;;;;;;;5029418;28;20306;-68
2022/10/24 11:50:53;;;;;;;16.23;12.30;;;;;;;;;;5011698;28;20567;-68
2022/10/24 11:53:26;;;;;;;17.50;12.90;;;;;;;;;;5029915;28;20659;-68
2022/10/24 11:55:56;;;;;;;16.07;13.13;;;;;;;;;;5029732;28;20195;-67
2022/10/24 11:58:22;;;;;;;17.37;13.27;;;;;;;;;;5030277;28;20237;-68
2022/10/24 12:00:55;;;;;;;17.80;13.40;;;;;;;;;;5011185;28;20698;-68
2022/10/24 12:03:31;;;;;;;20.53;14.07;;;;;;;;;;5029567;28;20222;-68
2022/10/24 12:06:02;;;;;;;17.57;13.70;;;;;;;;;;5028426;28;20662;-68
2022/10/24 12:08:33;;;;;;;16.83;13.27;;;;;;;;;;5028147;28;20270;-68
2022/10/24 12:11:19;;;;;;;18.60;13.83;;;;;;;;;;5029601;28;20191;-67
2022/10/24 12:13:51;;;;;;;17.87;13.47;;;;;;;;;;5029331;28;20938;-68
2022/10/24 12:16:30;;;;;;;20.13;14.60;;;;;;;;;;5028185;28;20682;-68
2022/10/24 12:18:58;;;;;;;21.53;15.03;;;;;;;;;;4992783;28;20206;-68
2022/10/24 12:21:25;;;;;;;21.77;15.27;;;;;;;;;;5009219;28;20195;-68
2022/10/24 12:23:53;;;;;;;21.90;15.47;;;;;;;;;;4992703;28;20243;-68
2022/10/24 12:26:23;;;;;;;24.90;17.33;;;;;;;;;;5009606;28;20184;-67
2022/10/24 12:28:54;;;;;;;23.97;17.20;;;;;;;;;;4992329;28;20223;-67
2022/10/24 12:31:21;;;;;;;23.43;16.27;;;;;;;;;;4992606;28;20254;-68
2022/10/24 12:34:10;;;;;;;22.90;15.87;;;;;;;;;;4993045;28;20188;-70
2022/10/24 12:37:14;;;;;;;20.90;15.50;;;;;;;;;;5028997;28;20188;-69
2022/10/24 12:39:41;;;;;;;23.20;15.53;;;;;;;;;;4931201;29;20234;-69
2022/10/24 12:42:16;;;;;;;23.93;15.17;;;;;;;;;;4986990;28;20238;-68
2022/10/24 12:44:43;;;;;;;23.67;16.40;;;;;;;;;;5035057;28;20191;-68
2022/10/24 12:47:36;;;;;;;25.43;17.43;;;;;;;;;;5000735;28;20230;-68
2022/10/24 12:50:21;;;;;;;23.67;16.23;;;;;;;;;;5031754;28;20204;-68
2022/10/24 12:52:49;;;;;;;23.07;16.50;;;;;;;;;;5033650;28;20220;-69
2022/10/24 12:55:34;;;;;;;21.70;14.33;;;;;;;;;;5033018;28;20183;-69
2022/10/24 12:58:27;;;;;;;22.53;15.70;;;;;;;;;;5017021;28;20195;-73
2022/10/24 13:00:54;;;;;;;22.97;15.67;;;;;;;;;;5017479;28;20298;-69
2022/10/24 13:03:22;;;;;;;24.50;16.67;;;;;;;;;;5033965;28;20531;-69
2022/10/24 13:06:10;;;;;;;25.80;17.43;;;;;;;;;;5034243;28;20198;-68
2022/10/24 13:08:39;;;;;;;29.53;18.90;;;;;;;;;;5016476;28;20591;-69
2022/10/24 13:11:29;;;;;;;30.47;19.00;;;;;;;;;;5025185;28;20234;-69
2022/10/24 13:13:56;;;;;;;33.60;20.10;;;;;;;;;;5034434;28;20725;-69
2022/10/24 13:16:25;;;;;;;38.30;21.47;;;;;;;;;;5034333;28;20195;-68
2022/10/24 13:19:22;;;;;;;34.23;20.53;;;;;;;;;;5034021;28;20851;-68
2022/10/24 13:21:51;;;;;;;38.07;24.93;;;;;;;;;;5004040;28;20207;-68
2022/10/24 13:24:20;;;;;;;41.60;24.83;;;;;;;;;;5034245;28;20187;-68
2022/10/24 13:26:54;;;;;;;41.87;24.10;;;;;;;;;;5034009;28;20605;-67
2022/10/24 13:29:27;;;;;;;37.83;23.27;;;;;;;;;;5034050;28;20197;-70
2022/10/24 13:31:54;;;;;;;38.70;23.97;;;;;;;;;;5034149;28;20195;-68
2022/10/24 13:34:24;;;;;;;40.33;25.10;;;;;;;;;;5016336;28;20191;-68
2022/10/24 13:37:11;;;;;;;39.13;23.50;;;;;;;;;;5033897;28;20279;-68
2022/10/24 13:39:43;;;;;;;37.93;22.23;;;;;;;;;;5021569;28;20698;-69
2022/10/24 13:42:27;;;;;;;42.17;22.63;;;;;;;;;;5015677;28;20376;-67
2022/10/24 13:44:58;;;;;;;37.10;21.40;;;;;;;;;;5032985;28;20192;-68
2022/10/24 13:47:35;;;;;;;39.73;23.77;;;;;;;;;;5015547;28;20223;-68
2022/10/24 13:50:02;;;;;;;39.60;22.00;;;;;;;;;;5015442;28;20195;-69
2022/10/24 13:52:34;;;;;;;39.60;22.57;;;;;;;;;;5033420;28;20200;-69
2022/10/24 13:55:27;;;;;;;36.60;23.00;;;;;;;;;;5015960;28;20651;-69
2022/10/24 13:57:53;;;;;;;36.30;21.30;;;;;;;;;;5029428;28;20227;-68
2022/10/24 14:00:21;;;;;;;35.63;20.80;;;;;;;;;;5032762;28;20217;-68
2022/10/24 14:02:48;;;;;;;30.63;19.70;;;;;;;;;;5033605;28;20199;-69
2022/10/24 14:05:21;;;;;;;29.33;17.90;;;;;;;;;;5033428;28;20547;-70
2022/10/24 14:07:48;;;;;;;31.03;17.67;;;;;;;;;;5033525;28;20242;-69
2022/10/24 14:10:18;;;;;;;31.63;18.30;;;;;;;;;;5032942;28;20199;-70
2022/10/24 14:12:45;;;;;;;24.93;17.23;;;;;;;;;;5033206;28;20257;-69
2022/10/24 14:15:14;;;;;;;26.57;17.07;;;;;;;;;;5033678;28;20274;-69
2022/10/24 14:17:41;;;;;;;25.77;17.67;;;;;;;;;;5016131;28;20647;-69
2022/10/24 14:20:08;;;;;;;28.93;17.30;;;;;;;;;;5029856;28;20207;-70
2022/10/24 14:22:38;;;;;;;27.30;17.33;;;;;;;;;;5033095;28;20203;-69
2022/10/24 14:25:06;;;;;;;28.13;17.27;;;;;;;;;;5016313;28;20191;-69
2022/10/24 14:27:34;;;;;;;29.47;17.47;;;;;;;;;;5015528;28;20261;-69
2022/10/24 14:30:01;;;;;;;27.73;17.10;;;;;;;;;;5032605;28;20210;-69
2022/10/24 14:32:28;;;;;;;26.73;17.40;;;;;;;;;;5014808;28;20187;-69
2022/10/24 14:34:55;;;;;;;29.17;17.50;;;;;;;;;;5015034;28;20198;-70